Station: Julia Creek  

  Atmospheric Gas Attenuation - ITU Rec 676-11   ----------------- dB/100km -----------------
Date Time Temp RH % AH g/m3 Dew Point Wind Direction Speed kph Gust kph Barometer mB Rainfall Since 9am 24GHz 47GHz 76GHz 122GHz 134GHz 241GHz
08/05 12:30 26.9 37 9.47 11 28 39 1017.2 0 20.8 23.8 37.0 97.1 93.5 322.9
08/05 12:20 26.5 38 9.51 11 30 33 1017.4 0 20.9 23.9 37.3 98.0 94.4 326.2
08/05 12:10 26.7 38 9.62 11.2 26 39 1017.6 0 21.1 24.0 37.6 98.8 95.5 329.9
08/05 12:00 26.7 38 9.62 11.2 26 39 1017.8 0 21.1 24.0 37.6 98.8 95.5 329.9
08/05 11:50 25.9 38 9.2 10.5 28 33 1018.1 0 20.3 23.7 36.5 95.8 91.6 316.2
08/05 11:40 25.8 38 9.15 10.4 28 35 1018.2 0 20.2 23.6 36.4 95.5 91.2 314.6
08/05 11:30 25.9 38 9.2 10.5 28 41 1018.4 0 20.3 23.7 36.5 95.9 91.7 316.3
08/05 11:20 25.2 38 8.85 9.9 35 41 1018.6 0 19.6 23.4 35.6 93.4 88.4 304.9
08/05 11:10 25.5 39 9.23 10.5 30 33 1018.8 0 20.3 23.8 36.8 96.7 92.5 319.2
08/05 11:00 25 38 8.75 9.7 30 39 1019 0 19.4 23.3 35.4 92.8 87.5 301.8
08/05 10:50 24.3 37 8.19 8.7 32 35 1019.2 0 18.2 22.7 33.8 88.4 81.9 281.9
08/05 10:40 24 36 7.83 8 28 37 1019.3 0 17.5 22.3 32.7 85.4 78.1 268.7
08/05 10:30 23.9 37 8 8.3 30 41 1019.3 0 17.9 22.5 33.3 87.1 80.2 275.7
08/05 10:20 23.5 37 7.82 8 33 43 1019.5 0 17.5 22.4 32.8 85.9 78.5 270.0
08/05 10:10 23.6 37 7.87 8.1 30 35 1019.4 0 17.6 22.4 33.0 86.2 79.0 271.6
08/05 10:00 22.8 37 7.52 7.4 32 41 1019.5 0 16.9 22.1 32.1 83.8 75.8 260.3
08/05 09:50 22.7 38 7.68 7.7 32 39 1019.5 0 17.2 22.4 32.7 85.4 77.7 267.0
08/05 09:40 21.9 38 7.33 7 35 41 1019.5 0 16.5 22.1 31.8 83.0 74.5 255.6
08/05 09:30 21.8 39 7.48 7.2 32 41 1019.6 0 16.9 22.3 32.3 84.5 76.3 262.0
08/05 09:20 21.5 40 7.54 7.3 30 35 1019.5 0 17.0 22.5 32.6 85.4 77.3 265.3
08/05 09:10 21 40 7.33 6.9 35 41 1019.6 0 16.6 22.3 32.1 83.9 75.3 258.5
08/05 09:00 21.2 41 7.6 7.4 35 44 1019.5 0 17.1 22.6 33.0 86.2 78.2 268.7
08/05 08:50 20.4 41 7.25 6.7 35 43 1019.4 0 16.4 22.3 32.1 83.8 75.0 257.1
08/05 08:40 20.3 42 7.39 7 30 35 1019.2 0 16.7 22.5 32.6 85.2 76.7 263.0
08/05 08:30 19.6 43 7.26 6.7 33 43 1019 0 16.5 22.5 32.4 84.7 75.8 259.9
08/05 08:20 19.3 43 7.13 6.4 35 43 1019 0 16.2 22.4 32.1 83.8 74.6 255.6
08/05 08:10 19 44 7.17 6.5 33 41 1018.9 0 16.3 22.5 32.3 84.4 75.3 258.1
08/05 08:00 18.6 45 7.16 6.4 33 44 1019 0 16.3 22.6 32.4 84.8 75.6 259.0
08/05 07:50 18.2 45 6.99 6.1 37 43 1018.9 0 16.0 22.5 32.0 83.6 73.9 253.2
08/05 07:40 17.9 47 7.18 6.4 26 32 1018.6 0 16.4 22.8 32.8 85.7 76.4 262.0
08/05 07:30 17.5 47 7.01 6.1 28 39 1018.5 0 16.0 22.6 32.3 84.4 74.8 256.2
08/05 07:20 17.5 47 7.01 6.1 33 41 1018.4 0 16.0 22.6 32.3 84.4 74.8 256.2
08/05 07:10 17.3 48 7.07 6.2 30 33 1018.3 0 16.2 22.8 32.6 85.2 75.7 259.3
08/05 07:00 17.2 48 7.03 6.1 26 35 1018.1 0 16.1 22.7 32.5 84.9 75.3 257.9
08/05 06:50 17.3 48 7.07 6.2 30 35 1018.1 0 16.2 22.8 32.6 85.2 75.7 259.2
08/05 06:40 17.3 48 7.07 6.2 24 26 1018 0 16.2 22.8 32.6 85.2 75.7 259.2
08/05 06:30 17.2 48 7.03 6.1 24 32 1018 0 16.1 22.7 32.5 84.9 75.3 257.9
08/05 06:20 17.1 48 6.99 6 24 32 1017.9 0 16.0 22.7 32.4 84.6 74.9 256.5
08/05 06:10 16.9 49 7.05 6.1 24 28 1017.7 0 16.2 22.8 32.7 85.4 75.8 259.6
08/05 06:00 16.7 49 6.96 5.9 22 30 1017.8 0 16.0 22.7 32.4 84.7 74.9 256.5
08/05 05:50 16.3 50 6.94 5.9 19 24 1017.5 0 15.9 22.8 32.5 84.9 75.0 256.8
08/05 05:40 16 51 6.95 5.9 22 26 1017.4 0 16.0 22.9 32.7 85.3 75.4 258.2
08/05 05:30 15.7 52 6.96 5.9 17 22 1017.3 0 16.0 23.0 32.8 85.7 75.8 259.6
08/05 05:20 15.7 53 7.09 6.2 17 19 1017.2 0 16.3 23.2 33.3 87.0 77.4 265.1
08/05 05:10 15.8 52 7 6 17 19 1017.2 0 16.1 23.0 32.9 86.0 76.2 260.9
08/05 05:00 15.7 52 6.96 5.9 17 20 1017 0 16.0 23.0 32.8 85.7 75.8 259.5
08/05 04:50 15.9 52 7.04 6.1 17 20 1017.1 0 16.2 23.0 33.0 86.3 76.6 262.3
08/05 04:40 15.9 53 7.18 6.3 15 19 1017.2 0 16.5 23.3 33.5 87.7 78.3 268.3
08/05 04:30 16 52 7.08 6.2 17 22 1017.3 0 16.3 23.1 33.1 86.6 77.0 263.7
08/05 04:20 16 53 7.22 6.4 17 19 1017.2 0 16.6 23.3 33.6 88.0 78.7 269.7
08/05 04:10 16 54 7.36 6.7 19 20 1017.2 0 16.8 23.5 34.2 89.4 80.4 275.7
08/05 04:00 16 55 7.49 7 17 22 1017 0 17.1 23.7 34.6 90.6 82.0 281.2
08/05 03:50 15.9 56 7.58 7.1 17 19 1017 0 17.3 23.9 35.0 91.6 83.2 285.5
08/05 03:40 16 57 7.77 7.5 15 17 1016.8 0 17.7 24.1 35.7 93.4 85.4 293.3
08/05 03:30 16.1 58 7.95 7.8 17 22 1016.7 0 18.1 24.4 36.3 95.1 87.6 300.8
08/05 03:20 16.4 57 7.96 7.9 19 22 1016.7 0 18.1 24.3 36.2 94.9 87.4 300.1
08/05 03:10 16.6 56 7.91 7.8 19 24 1016.7 0 18.0 24.2 35.9 94.1 86.5 297.2
08/05 03:00 16.9 56 8.05 8.1 19 26 1016.6 0 18.3 24.3 36.3 95.2 87.9 302.2
08/05 02:50 16.9 57 8.2 8.3 19 22 1016.7 0 18.6 24.5 36.9 96.7 89.8 308.7
08/05 02:40 16.9 59 8.49 8.8 20 26 1016.8 0 19.2 25.0 38.0 99.7 93.5 321.5
08/05 02:30 16.6 62 8.76 9.3 19 24 1016.8 0 19.8 25.5 39.2 102.8 97.3 334.8
08/05 02:20 16.1 65 8.91 9.5 17 19 1016.8 0 20.1 25.9 40.0 105.1 99.8 343.7
08/05 02:10 15.8 67 9.02 9.7 15 17 1016.8 0 20.4 26.1 40.6 106.6 101.6 350.1
08/05 02:00 15.7 68 9.1 9.8 13 15 1016.8 0 20.6 26.3 41.0 107.6 102.8 354.2
08/05 01:50 15.7 68 9.1 9.8 13 13 1016.9 0 20.6 26.3 41.0 107.6 102.8 354.2
08/05 01:40 15.9 67 9.07 9.8 13 13 1017 0 20.5 26.2 40.8 107.0 102.2 352.0
08/05 01:30 16.3 66 9.16 9.9 15 19 1016.9 0 20.7 26.2 40.9 107.4 102.8 354.3
08/05 01:20 16.5 65 9.13 9.9 15 19 1017.1 0 20.6 26.1 40.7 106.9 102.2 352.1
08/05 01:10 16.3 66 9.16 9.9 15 15 1017.1 0 20.7 26.2 40.9 107.5 102.8 354.3
08/05 01:00 16.4 67 9.35 10.3 15 15 1017.1 0 21.1 26.5 41.6 109.3 105.2 362.6
08/05 00:50 16.5 66 9.27 10.1 15 15 1017.1 0 20.9 26.3 41.3 108.4 104.0 358.4
08/05 00:40 16.7 66 9.38 10.3 13 15 1017 0 21.1 26.4 41.6 109.2 105.2 362.5
08/05 00:30 17 65 9.4 10.4 15 17 1017.1 0 21.1 26.4 41.5 109.0 105.0 362.1
08/05 00:20 17.3 64 9.43 10.4 13 15 1017.1 0 21.2 26.3 41.5 109.0 105.0 362.1
08/05 00:10 17.6 62 9.3 10.2 15 15 1017.1 0 20.9 26.1 40.8 107.2 102.9 354.8
08/05 00:00 18 61 9.37 10.4 15 17 1017.2 0 21.0 26.0 40.9 107.4 103.3 356.2
07/05 23:50 18.4 59 9.28 10.3 15 19 1017.2 0 20.8 25.8 40.3 105.9 101.6 350.4
07/05 23:40 18.7 58 9.29 10.3 15 17 1017.2 0 20.8 25.7 40.2 105.6 101.4 349.5
07/05 23:30 19 57 9.29 10.3 17 20 1017.3 0 20.8 25.6 40.1 105.2 101.0 348.2
07/05 23:20 19.2 57 9.4 10.5 17 20 1017.4 0 21.0 25.8 40.4 106.1 102.1 352.3
07/05 23:10 19.5 56 9.4 10.5 17 20 1017.4 0 21.0 25.7 40.3 105.7 101.8 350.9
07/05 23:00 19.7 55 9.34 10.4 17 20 1017.5 0 20.9 25.5 39.9 104.8 100.8 347.4
07/05 22:50 20 55 9.5 10.7 19 20 1017.4 0 21.2 25.7 40.4 106.1 102.4 353.1
07/05 22:40 20.2 54 9.44 10.6 19 20 1017.3 0 21.0 25.5 40.1 105.2 101.3 349.6
07/05 22:30 20.4 54 9.55 10.8 19 26 1017.2 0 21.3 25.6 40.4 106.0 102.5 353.5
07/05 22:20 20.4 55 9.73 11.1 19 20 1017.3 0 21.7 25.9 41.1 107.9 104.7 361.4
07/05 22:10 20.6 54 9.66 11 19 20 1017.4 0 21.5 25.8 40.7 106.9 103.6 357.5
07/05 22:00 20.9 53 9.65 11 19 26 1017.4 0 21.5 25.7 40.5 106.4 103.1 355.7
07/05 21:50 21.2 53 9.82 11.2 20 24 1017.3 0 21.8 25.8 41.0 107.7 104.8 361.7
07/05 21:40 21.3 53 9.88 11.3 20 24 1017.3 0 21.9 25.9 41.2 108.2 105.4 363.9
07/05 21:30 21.6 52 9.86 11.3 20 24 1017.2 0 21.9 25.8 40.9 107.6 104.7 361.7
07/05 21:20 21.6 53 10.05 11.6 20 22 1017.2 0 22.3 26.1 41.7 109.5 107.1 370.0
07/05 21:10 21.6 53 10.05 11.6 22 26 1017.1 0 22.3 26.1 41.7 109.5 107.1 369.9
07/05 21:00 21.6 54 10.24 11.9 19 24 1017 0 22.7 26.4 42.4 111.4 109.5 378.2
07/05 20:50 21.5 55 10.37 12.1 19 20 1017.1 0 22.9 26.6 42.9 112.9 111.3 384.5
07/05 20:40 21.5 55 10.37 12.1 19 22 1017 0 22.9 26.6 42.9 112.9 111.3 384.5
07/05 20:30 21.6 55 10.43 12.2 19 20 1017 0 23.1 26.6 43.1 113.3 111.9 386.6
07/05 20:20 21.8 55 10.55 12.4 19 20 1016.9 0 23.3 26.8 43.5 114.3 113.1 391.0
07/05 20:10 21.9 55 10.61 12.5 17 20 1016.8 0 23.4 26.8 43.6 114.7 113.7 393.1
07/05 20:00 22.1 55 10.74 12.6 17 20 1016.6 0 23.7 27.0 44.0 115.8 115.1 397.8

Last Refresh: 08-May-2026 12:08:31

Bureau of Meteorology